ADDS METAR Data INFO
IDs: Format: Raw Decoded Include TAF

Data at: 1050 UTC 20 Sep 2017

K5C1 201035Z AUTO 18006KT 10SM OVC011 23/21 A2993 RMK AO1
K5C1 201015Z AUTO 18006KT 10SM OVC011 23/21 A2993 RMK AO1
K5C1 200955Z AUTO 19009KT 10SM OVC011 23/21 A2993 RMK AO1
K5C1 200935Z AUTO 18008KT 10SM OVC011 23/21 A2992 RMK AO1
K5C1 200915Z AUTO 19007KT 10SM OVC011 23/21 A2992 RMK AO1
K5C1 200855Z AUTO 17007KT 10SM OVC011 23/21 A2992 RMK AO1
K5C1 200835Z AUTO 18007KT 10SM OVC011 23/22 A2992 RMK AO1
K5C1 200815Z AUTO 17005KT 10SM OVC011 23/21 A2992 RMK AO1
K5C1 200755Z AUTO 17006KT 10SM BKN011 23/21 A2992 RMK AO1
K5C1 200735Z AUTO 17006KT 10SM CLR 23/21 A2993 RMK AO1
K5C1 200715Z AUTO 18004KT 10SM CLR 23/21 A2993 RMK AO1
K5C1 200655Z AUTO 17007KT 10SM CLR 23/21 A2993 RMK AO1
K5C1 200635Z AUTO 17007KT 10SM CLR 23/21 A2993 RMK AO1
K5C1 200615Z AUTO 17006KT 10SM CLR 24/21 A2993 RMK AO1
K5C1 200555Z AUTO 17005KT 10SM CLR 24/21 A2993 RMK AO1
K5C1 200535Z AUTO 16005KT 10SM CLR 25/21 A2994 RMK AO1
K5C1 200515Z AUTO 17005KT 10SM CLR 25/21 A2994 RMK AO1
K5C1 200455Z AUTO 16006KT 10SM CLR 25/21 A2994 RMK AO1
K5C1 200435Z AUTO 16008KT 10SM CLR 25/21 A2993 RMK AO1
K5C1 200415Z AUTO 16006KT 10SM CLR 25/21 A2992 RMK AO1
K5C1 200355Z AUTO 18009KT 10SM CLR 26/21 A2991 RMK AO1
K5C1 200335Z AUTO 16005KT 10SM CLR 26/21 A2991 RMK AO1
K5C1 200315Z AUTO 16006KT 10SM CLR 26/21 A2991 RMK AO1
K5C1 200255Z AUTO 15004KT 10SM CLR 27/21 A2990 RMK AO1
K5C1 200235Z AUTO 15006KT 10SM CLR 27/20 A2990 RMK AO1
K5C1 200215Z AUTO 15009G18KT 10SM CLR 28/20 A2990 RMK AO1
K5C1 200155Z AUTO 14009KT 10SM CLR 28/20 A2989 RMK AO1
K5C1 200135Z AUTO 14009G14KT 10SM CLR 28/20 A2989 RMK AO1
K5C1 200110Z AUTO 15010G14KT 10SM CLR 29/20 A2988 RMK AO1
K5C1 200055Z AUTO 15010G14KT 10SM CLR 29/20 A2988 RMK AO1
K5C1 200035Z AUTO 15008G14KT 10SM CLR 30/19 A2987 RMK AO1
K5C1 200015Z AUTO 15004KT 10SM CLR 30/18 A2987 RMK AO1
K5C1 192355Z AUTO 17006KT 10SM CLR 31/18 A2987 RMK AO1
K5C1 192335Z AUTO 16006KT 10SM CLR 31/18 A2987 RMK AO1
K5C1 192315Z AUTO 17007KT 10SM CLR 31/18 A2988 RMK AO1
K5C1 192255Z AUTO 19006KT 10SM SCT055 31/18 A2988 RMK AO1
K5C1 192235Z AUTO 16005KT 10SM CLR 31/18 A2987 RMK AO1
K5C1 192215Z AUTO 16009KT 10SM SCT050 32/18 A2987 RMK AO1
K5C1 192155Z AUTO 19008KT 150V210 10SM SCT050 32/18 A2987 RMK AO1
K5C1 192135Z AUTO 20008KT 10SM SCT048 32/19 A2988 RMK AO1
K5C1 192115Z AUTO 20009KT 10SM CLR 31/19 A2989 RMK AO1
K5C1 192055Z AUTO 15008KT 10SM SCT046 SCT065 32/20 A2989 RMK AO1
K5C1 192035Z AUTO 17005G15KT 10SM SCT048 SCT060 SCT075 31/19 A2990 RMK AO1
K5C1 192015Z AUTO 16009G15KT 130V190 10SM SCT046 BKN060 BKN075 31/19 A2991 RMK AO1
K5C1 191955Z AUTO 17011G16KT 140V210 10SM BKN044 BKN050 32/19 A2992 RMK AO1
K5C1 191935Z AUTO 16010G16KT 120V190 10SM BKN042 BKN050 BKN065 31/19 A2993 RMK AO1
K5C1 191915Z AUTO 19008G14KT 150V210 10SM BKN040 BKN050 31/20 A2994 RMK AO1
K5C1 191855Z AUTO 17008KT 090V210 10SM SCT038 BKN044 31/20 A2995 RMK AO1
K5C1 191835Z AUTO 17010KT 10SM SCT035 BKN044 30/20 A2996 RMK AO1
K5C1 191815Z AUTO 18006KT 10SM BKN034 OVC039 29/20 A2998 RMK AO1
K5C1 191755Z AUTO 19007KT 150V210 10SM BKN032 OVC039 29/20 A2998 RMK AO1
K5C1 191735Z AUTO 21005KT 10SM OVC032 28/20 A2999 RMK AO1
K5C1 191715Z AUTO 18008G14KT 10SM BKN029 OVC034 28/20 A3000 RMK AO1
K5C1 191655Z AUTO 17009KT 10SM BKN026 BKN031 28/20 A3001 RMK AO1
K5C1 191635Z AUTO 20009G14KT 10SM OVC026 27/20 A3001 RMK AO1
K5C1 191615Z AUTO 20009KT 10SM SCT019 OVC026 26/21 A3001 RMK AO1
K5C1 191555Z AUTO 19009G15KT 10SM BKN020 OVC027 26/21 A3001 RMK AO1
K5C1 191535Z AUTO 19008KT 140V200 10SM SCT019 OVC027 26/21 A3001 RMK AO1
K5C1 191515Z AUTO 19011G14KT 10SM SCT017 OVC025 26/21 A3001 RMK AO1
K5C1 191455Z AUTO 17010G14KT 10SM SCT017 BKN023 25/21 A3001 RMK AO1
K5C1 191435Z AUTO 17009KT 10SM BKN018 OVC022 25/21 A3001 RMK AO1
K5C1 191415Z AUTO 18009KT 10SM BKN014 OVC020 25/21 A3001 RMK AO1
K5C1 191355Z AUTO 17006KT 10SM BKN010 OVC016 24/21 A3001 RMK AO1
K5C1 191335Z AUTO 19005KT 7SM OVC008 23/22 A3000 RMK AO1
K5C1 191315Z AUTO 17004KT 7SM BKN010 OVC015 23/22 A3000 RMK AO1
K5C1 191255Z AUTO 18003KT 7SM BKN010 OVC015 23/21 A2999 RMK AO1
K5C1 191235Z AUTO 19004KT 7SM OVC012 23/21 A2999 RMK AO1
K5C1 191215Z AUTO 19008KT 7SM BKN010 OVC016 23/21 A2997 RMK AO1
K5C1 191155Z AUTO 20003KT 7SM OVC012 23/21 A2998 RMK AO1
K5C1 191135Z AUTO 20003KT 7SM BKN012 22/21 A2998 RMK AO1
K5C1 191115Z AUTO 19003KT 7SM BKN012 22/21 A2997 RMK AO1
K5C1 191055Z AUTO 00000KT 7SM SCT010 SCT014 22/21 A2997 RMK AO1
K5C1 191035Z AUTO 19005KT 7SM SCT010 23/21 A2997 RMK AO1
K5C1 191015Z AUTO 18004KT 10SM BKN012 23/21 A2997 RMK AO1
K5C1 190955Z AUTO 18005KT 10SM BKN012 23/21 A2997 RMK AO1
K5C1 190935Z AUTO 19005KT 10SM BKN012 23/21 A2997 RMK AO1
K5C1 190915Z AUTO 18008KT 10SM BKN012 BKN016 23/21 A2997 RMK AO1
K5C1 190855Z AUTO 18004KT 10SM OVC012 23/21 A2997 RMK AO1
K5C1 190835Z AUTO 18007KT 10SM OVC012 23/21 A2997 RMK AO1
K5C1 190815Z AUTO 18006KT 10SM OVC012 23/21 A2997 RMK AO1
K5C1 190755Z AUTO 17006KT 10SM BKN012 23/21 A2997 RMK AO1
K5C1 190735Z AUTO 17008KT 10SM BKN012 23/21 A2998 RMK AO1
K5C1 190715Z AUTO 17005KT 10SM OVC012 23/21 A2998 RMK AO1
K5C1 190655Z AUTO 16005KT 10SM SCT012 23/21 A2999 RMK AO1
K5C1 190635Z AUTO 18005KT 10SM CLR 23/21 A2999 RMK AO1
K5C1 190615Z AUTO 17006KT 10SM CLR 24/21 A2998 RMK AO1
K5C1 190555Z AUTO 17008KT 10SM CLR 24/21 A2997 RMK AO1
K5C1 190535Z AUTO 16005KT 10SM CLR 24/21 A2999 RMK AO1
K5C1 190515Z AUTO 17006KT 10SM CLR 25/21 A2999 RMK AO1
K5C1 190455Z AUTO 15005KT 10SM CLR 25/21 A2999 RMK AO1
K5C1 190435Z AUTO 15006KT 10SM CLR 25/21 A2999 RMK AO1
K5C1 190415Z AUTO 15006KT 10SM CLR 25/21 A2999 RMK AO1
K5C1 190355Z AUTO 15008KT 10SM CLR 26/21 A2998 RMK AO1
K5C1 190335Z AUTO 16006KT 10SM CLR 26/21 A2998 RMK AO1
K5C1 190315Z AUTO 15007KT 10SM CLR 26/21 A2997 RMK AO1
K5C1 190255Z AUTO 15007KT 10SM CLR 26/21 A2998 RMK AO1
K5C1 190235Z AUTO 15006KT 10SM CLR 27/21 A2998 RMK AO1
K5C1 190215Z AUTO 15007KT 10SM CLR 27/20 A2996 RMK AO1
K5C1 190155Z AUTO 15008KT 10SM CLR 27/21 A2996 RMK AO1
K5C1 190135Z AUTO 15007KT 10SM CLR 27/21 A2995 RMK AO1
K5C1 190115Z AUTO 14006KT 10SM CLR 28/21 A2995 RMK AO1
K5C1 190055Z AUTO 15008KT 10SM CLR 28/20 A2994 RMK AO1
K5C1 190035Z AUTO 15012G15KT 10SM CLR 29/20 A2994 RMK AO1
K5C1 190015Z AUTO 14007KT 10SM CLR 31/18 A2994 RMK AO1
K5C1 182355Z AUTO 16006KT 10SM CLR 31/18 A2993 RMK AO1
K5C1 182335Z AUTO 15005KT 10SM CLR 32/17 A2994 RMK AO1
K5C1 182315Z AUTO 18006KT 10SM CLR 32/18 A2994 RMK AO1
K5C1 182255Z AUTO 17005KT 10SM CLR 32/17 A2994 RMK AO1